createdAt,value
2022-12-17T00:00:32.929Z,100460.13
2022-12-17T00:03:18.784Z,100469.59
2022-12-17T00:06:03.832Z,100463.09
2022-12-17T00:08:49.233Z,100468.44
2022-12-17T00:11:36.018Z,100472.91
2022-12-17T00:14:20.905Z,100477.06
2022-12-17T00:17:05.939Z,100472.66
2022-12-17T00:19:50.836Z,100479.13
2022-12-17T00:22:37.041Z,100492.00
2022-12-17T00:25:22.335Z,100480.94
2022-12-17T00:28:08.545Z,100482.44
2022-12-17T00:30:53.424Z,100482.13
2022-12-17T00:33:38.764Z,100484.53
2022-12-17T00:36:24.431Z,100491.47
2022-12-17T00:39:09.593Z,100496.78
2022-12-17T00:41:55.084Z,100499.59
2022-12-17T00:44:42.561Z,100501.06
2022-12-17T00:47:27.299Z,100505.50
2022-12-17T00:50:13.316Z,100495.00
2022-12-17T00:52:59.816Z,100501.06
2022-12-17T00:55:44.606Z,100501.81
2022-12-17T00:58:29.591Z,100504.75
2022-12-17T01:01:17.895Z,100517.44
2022-12-17T01:04:03.309Z,100516.41
2022-12-17T01:06:48.217Z,100523.19
2022-12-17T01:09:33.077Z,100524.81
2022-12-17T01:12:18.275Z,100521.84
2022-12-17T01:15:03.139Z,100512.28
2022-12-17T01:17:49.354Z,100515.22
2022-12-17T01:20:34.251Z,100515.81
2022-12-17T01:23:19.233Z,100521.88
2022-12-17T01:26:10.237Z,100530.88
2022-12-17T01:28:55.006Z,100531.59
2022-12-17T01:31:40.169Z,100527.91
2022-12-17T01:34:26.583Z,100534.41
2022-12-17T01:37:11.501Z,100538.22
2022-12-17T01:39:59.759Z,100532.88
2022-12-17T01:42:44.664Z,100546.47
2022-12-17T01:45:31.739Z,100550.56
2022-12-17T01:48:27.876Z,100555.25
2022-12-17T01:51:16.899Z,100562.31
2022-12-17T01:54:05.154Z,100560.41
2022-12-17T01:57:01.789Z,100561.69
2022-12-17T01:59:50.471Z,100561.41
2022-12-17T02:02:36.014Z,100565.22
2022-12-17T02:05:21.276Z,100558.13
2022-12-17T02:08:26.582Z,100557.84
2022-12-17T02:11:15.138Z,100564.00
2022-12-17T02:14:02.496Z,100569.56
2022-12-17T02:16:51.068Z,100570.16
2022-12-17T02:19:43.372Z,100578.41
2022-12-17T02:22:35.364Z,100580.44
2022-12-17T02:25:27.135Z,100585.72
2022-12-17T02:28:12.921Z,100585.06
2022-12-17T02:31:09.530Z,100586.53
2022-12-17T02:33:55.018Z,100580.91
2022-12-17T02:36:40.140Z,100594.16
2022-12-17T02:39:24.918Z,100588.19
2022-12-17T02:42:12.608Z,100604.75
2022-12-17T02:45:00.951Z,100602.59
2022-12-17T02:47:46.562Z,100597.59
2022-12-17T02:50:31.834Z,100596.69
2022-12-17T02:53:18.412Z,100605.16
2022-12-17T02:56:03.560Z,100610.50
2022-12-17T02:58:51.640Z,100613.41
2022-12-17T03:01:38.264Z,100620.63
2022-12-17T03:04:34.817Z,100615.03
2022-12-17T03:07:20.105Z,100617.03
2022-12-17T03:10:06.079Z,100627.44
2022-12-17T03:12:51.870Z,100617.94
2022-12-17T03:15:36.624Z,100635.28
2022-12-17T03:18:23.276Z,100632.47
2022-12-17T03:21:12.059Z,100632.47
2022-12-17T03:23:57.356Z,100634.81
2022-12-17T03:26:42.225Z,100640.41
2022-12-17T03:29:26.927Z,100637.47
2022-12-17T03:32:11.868Z,100636.75
2022-12-17T03:34:58.357Z,100638.13
2022-12-17T03:37:43.306Z,100642.69
2022-12-17T03:40:29.219Z,100633.34
2022-12-17T03:43:14.031Z,100636.50
2022-12-17T03:45:59.014Z,100643.75
2022-12-17T03:48:44.321Z,100653.91
2022-12-17T03:51:30.888Z,100655.16
2022-12-17T03:54:16.231Z,100656.38
2022-12-17T03:57:01.058Z,100662.00
2022-12-17T03:59:46.330Z,100656.44
2022-12-17T04:02:31.418Z,100666.75
2022-12-17T04:05:20.123Z,100674.00
2022-12-17T04:08:07.227Z,100665.28
2022-12-17T04:10:52.598Z,100663.94
2022-12-17T04:13:41.104Z,100665.16
2022-12-17T04:16:26.762Z,100672.09
2022-12-17T04:19:11.745Z,100674.50
2022-12-17T04:21:56.660Z,100674.81
2022-12-17T04:24:43.120Z,100677.94
2022-12-17T04:27:28.268Z,100681.81
2022-12-17T04:30:13.260Z,100679.59
2022-12-17T04:33:12.865Z,100678.59
2022-12-17T04:35:58.104Z,100687.88
2022-12-17T04:38:43.026Z,100681.00
2022-12-17T04:41:29.458Z,100677.47
2022-12-17T04:44:14.662Z,100682.34
2022-12-17T04:46:59.734Z,100686.34
2022-12-17T04:49:44.919Z,100681.09
2022-12-17T04:52:29.948Z,100682.25
2022-12-17T04:55:14.855Z,100688.16
2022-12-17T04:58:00.980Z,100692.91
2022-12-17T05:00:45.953Z,100692.72
2022-12-17T05:03:32.065Z,100695.22
2022-12-17T05:06:17.196Z,100690.22
2022-12-17T05:09:02.122Z,100695.84
2022-12-17T05:11:47.539Z,100699.81
2022-12-17T05:14:36.954Z,100708.50
2022-12-17T05:17:22.342Z,100710.63
2022-12-17T05:20:07.101Z,100712.97
2022-12-17T05:22:55.042Z,100706.50
2022-12-17T05:25:39.995Z,100716.78
2022-12-17T05:28:33.412Z,100726.81
2022-12-17T05:31:19.751Z,100731.50
2022-12-17T05:34:04.661Z,100733.84
2022-12-17T05:36:49.510Z,100716.38
2022-12-17T05:39:34.400Z,100729.66
2022-12-17T05:42:15.791Z,100728.31
2022-12-17T05:45:15.224Z,100732.28
2022-12-17T05:48:01.648Z,100731.28
2022-12-17T05:50:46.502Z,100749.19
2022-12-17T05:53:31.687Z,100739.63
2022-12-17T05:56:16.574Z,100744.25
2022-12-17T05:59:01.602Z,100751.84
2022-12-17T06:01:46.643Z,100740.03
2022-12-17T06:04:33.319Z,100745.16
2022-12-17T06:07:18.234Z,100747.34
2022-12-17T06:10:03.298Z,100747.66
2022-12-17T06:12:48.529Z,100760.59
2022-12-17T06:15:33.829Z,100761.63
2022-12-17T06:18:19.034Z,100757.56
2022-12-17T06:21:05.600Z,100762.97
2022-12-17T06:23:50.465Z,100763.22
2022-12-17T06:26:35.484Z,100763.19
2022-12-17T06:29:20.325Z,100760.06
2022-12-17T06:32:05.346Z,100763.75
2022-12-17T06:34:50.187Z,100770.00
2022-12-17T06:37:36.584Z,100770.63
2022-12-17T06:40:21.983Z,100773.09
2022-12-17T06:43:13.396Z,100777.50
2022-12-17T06:45:58.175Z,100781.44
2022-12-17T06:48:43.053Z,100780.59
2022-12-17T06:51:27.771Z,100784.75
2022-12-17T06:54:13.927Z,100790.31
2022-12-17T06:56:58.673Z,100783.34
2022-12-17T06:59:43.644Z,100791.56
2022-12-17T07:02:31.408Z,100785.75
2022-12-17T07:05:16.220Z,100793.19
2022-12-17T07:08:01.113Z,100803.59
2022-12-17T07:10:47.276Z,100809.06
2022-12-17T07:13:32.041Z,100818.06
2022-12-17T07:16:17.072Z,100829.31
2022-12-17T07:20:30.435Z,100834.50
2022-12-17T07:23:17.947Z,100834.75
2022-12-17T07:26:03.369Z,100836.97
2022-12-17T07:28:48.617Z,100846.75
2022-12-17T07:31:34.091Z,100854.66
2022-12-17T07:34:19.062Z,100858.28
2022-12-17T07:37:05.691Z,100860.94
2022-12-17T07:39:50.984Z,100865.81
2022-12-17T07:42:36.214Z,100876.88
2022-12-17T07:45:21.354Z,100883.91
2022-12-17T07:48:10.302Z,100889.94
2022-12-17T07:50:55.628Z,100889.19
2022-12-17T07:53:42.197Z,100890.19
2022-12-17T07:56:27.497Z,100887.53
2022-12-17T07:59:12.912Z,100893.59
2022-12-17T08:01:58.618Z,100904.03
2022-12-17T08:04:43.694Z,100908.66
2022-12-17T08:07:25.164Z,100901.88
2022-12-17T08:10:11.898Z,100912.19
2022-12-17T08:12:57.224Z,100915.44
2022-12-17T08:15:42.416Z,100919.28
2022-12-17T08:18:27.944Z,100922.38
2022-12-17T08:21:12.494Z,100921.56
2022-12-17T08:24:06.132Z,100927.56
2022-12-17T08:26:52.775Z,100934.50
2022-12-17T08:29:38.252Z,100946.72
2022-12-17T08:32:23.582Z,100946.81
2022-12-17T08:35:08.718Z,100949.13
2022-12-17T08:37:53.980Z,100948.53
2022-12-17T08:40:39.336Z,100950.84
2022-12-17T08:43:26.113Z,100957.22
2022-12-17T08:46:11.800Z,100951.84
2022-12-17T08:48:57.309Z,100955.81
2022-12-17T08:51:43.230Z,100960.00
2022-12-17T08:54:28.498Z,100960.06
2022-12-17T08:57:22.587Z,100964.31
2022-12-17T09:00:17.724Z,100972.38
2022-12-17T09:03:03.183Z,100964.41
2022-12-17T09:05:48.837Z,100964.13
2022-12-17T09:08:30.483Z,100962.09
2022-12-17T09:11:17.803Z,100958.13
2022-12-17T09:14:03.093Z,100964.63
2022-12-17T09:17:04.319Z,100967.31
2022-12-17T09:19:49.558Z,100958.41
2022-12-17T09:22:34.489Z,100961.66
2022-12-17T09:25:19.499Z,100964.63
2022-12-17T09:28:04.467Z,100963.91
2022-12-17T09:30:49.907Z,100973.97
2022-12-17T09:33:37.006Z,100969.63
2022-12-17T09:36:23.234Z,100958.94
2022-12-17T09:39:08.634Z,100969.69
2022-12-17T09:42:05.120Z,100977.06
2022-12-17T09:45:00.015Z,100980.78
2022-12-17T09:47:54.448Z,100986.56
2022-12-17T09:50:41.003Z,100976.94
2022-12-17T09:53:41.547Z,100991.22
2022-12-17T09:56:30.266Z,100981.56
2022-12-17T09:59:15.495Z,100982.38
2022-12-17T10:02:01.047Z,100992.63
2022-12-17T10:04:52.103Z,100994.44
2022-12-17T10:07:47.388Z,100993.75
2022-12-17T10:10:36.276Z,100992.00
2022-12-17T10:13:29.376Z,100982.75
2022-12-17T10:16:14.798Z,100980.75
2022-12-17T10:19:00.882Z,100979.97
2022-12-17T10:21:49.868Z,100986.13
2022-12-17T10:24:36.273Z,100981.53
2022-12-17T10:27:27.587Z,100979.41
2022-12-17T10:30:13.033Z,100979.63
2022-12-17T10:32:58.351Z,100966.84
2022-12-17T10:35:53.696Z,100969.25
2022-12-17T10:38:41.469Z,100967.88
2022-12-17T10:41:39.668Z,100965.97
2022-12-17T10:44:42.314Z,100969.50
2022-12-17T10:47:31.105Z,100969.38
2022-12-17T10:50:17.723Z,100966.19
2022-12-17T10:53:05.202Z,100971.97
2022-12-17T10:55:51.995Z,100969.84
2022-12-17T10:58:44.255Z,100979.34
2022-12-17T11:01:36.643Z,100978.28
2022-12-17T11:04:21.658Z,100982.88
2022-12-17T11:07:10.733Z,100972.09
2022-12-17T11:10:07.064Z,100978.28
2022-12-17T11:12:57.637Z,100974.06
2022-12-17T11:15:50.085Z,100968.34
2022-12-17T11:18:39.253Z,100983.69
2022-12-17T11:21:29.238Z,100984.44
2022-12-17T11:24:22.456Z,100980.63
2022-12-17T11:27:10.678Z,100971.84
2022-12-17T11:29:55.811Z,100976.66
2022-12-17T11:33:05.736Z,100977.41
2022-12-17T11:36:00.922Z,100988.59
2022-12-17T11:38:54.000Z,100978.56
2022-12-17T11:41:55.304Z,100974.66
2022-12-17T11:45:04.835Z,100974.88
2022-12-17T11:48:01.234Z,100982.59
2022-12-17T11:50:56.582Z,100970.75
2022-12-17T11:53:58.557Z,100970.81
2022-12-17T11:56:49.350Z,100968.06
2022-12-17T11:59:50.933Z,100973.38
2022-12-17T12:02:53.946Z,100970.78
2022-12-17T12:05:51.994Z,100976.56
2022-12-17T12:08:49.945Z,100973.63
2022-12-17T12:11:45.909Z,100973.63
2022-12-17T12:14:47.266Z,100977.84
2022-12-17T12:17:46.339Z,100971.34
2022-12-17T12:20:45.673Z,100974.91
2022-12-17T12:23:39.454Z,100970.88
2022-12-17T12:26:41.367Z,100980.28
2022-12-17T12:29:40.442Z,100978.13
2022-12-17T12:32:33.941Z,100979.63
2022-12-17T12:35:24.138Z,100983.50
2022-12-17T12:38:09.298Z,100977.97
2022-12-17T12:41:04.947Z,100985.19
2022-12-17T12:43:54.003Z,100984.00
2022-12-17T12:46:44.810Z,100988.31
2022-12-17T12:49:38.621Z,100991.34
2022-12-17T12:52:24.131Z,100999.59
2022-12-17T12:55:11.608Z,101002.72
2022-12-17T12:58:00.078Z,100996.38
2022-12-17T13:00:53.013Z,100997.34
2022-12-17T13:03:47.486Z,100985.72
2022-12-17T13:06:36.215Z,100982.00
2022-12-17T13:09:07.732Z,100965.53
2022-12-17T13:11:38.808Z,100972.91
2022-12-17T13:14:21.403Z,100960.53
2022-12-17T13:16:56.525Z,100969.34
2022-12-17T13:19:36.553Z,100962.47
2022-12-17T13:22:29.769Z,100960.59
2022-12-17T13:25:14.987Z,100962.03
2022-12-17T13:27:43.768Z,100959.66
2022-12-17T13:30:33.619Z,100959.22
2022-12-17T13:33:17.067Z,100959.44
2022-12-17T13:35:58.739Z,100969.16
2022-12-17T13:38:37.876Z,100960.69
2022-12-17T13:41:10.446Z,100966.38
2022-12-17T13:43:44.614Z,100968.38
2022-12-17T13:46:20.769Z,100977.00
2022-12-17T13:48:58.611Z,100971.22
2022-12-17T13:51:28.097Z,100978.81
2022-12-17T13:53:57.829Z,100982.59
2022-12-17T13:56:27.897Z,100998.38
2022-12-17T13:58:58.042Z,100995.06
2022-12-17T14:01:27.063Z,101001.97
2022-12-17T14:04:06.368Z,100999.28
2022-12-17T14:06:37.427Z,100995.41
2022-12-17T14:09:08.552Z,100995.72
2022-12-17T14:11:56.275Z,100993.88
2022-12-17T14:14:31.133Z,100995.47
2022-12-17T14:16:59.318Z,100993.38
2022-12-17T14:19:30.034Z,100985.75
2022-12-17T14:21:58.073Z,100993.00
2022-12-17T14:24:29.423Z,100987.63
2022-12-17T14:26:59.230Z,100993.41
2022-12-17T14:29:28.700Z,101000.28
2022-12-17T14:31:58.899Z,100997.16
2022-12-17T14:34:28.475Z,100995.50
2022-12-17T14:36:59.061Z,101003.69
2022-12-17T14:39:28.932Z,101000.81
2022-12-17T14:42:16.370Z,100992.53
2022-12-17T14:44:52.148Z,100991.03
2022-12-17T14:47:23.068Z,100997.34
2022-12-17T14:50:02.437Z,100998.56
2022-12-17T14:52:40.307Z,101002.84
2022-12-17T14:55:31.366Z,101000.78
2022-12-17T14:58:16.233Z,101004.88
2022-12-17T15:00:47.800Z,101004.94
2022-12-17T15:03:20.601Z,101003.91
2022-12-17T15:05:54.032Z,101009.66
2022-12-17T15:08:22.564Z,101022.22
2022-12-17T15:10:50.812Z,101019.34
2022-12-17T15:13:18.523Z,101028.25
2022-12-17T15:15:46.622Z,101018.31
2022-12-17T15:18:14.376Z,101023.44
2022-12-17T15:20:42.344Z,101021.09
2022-12-17T15:23:16.717Z,101028.88
2022-12-17T15:25:46.898Z,101024.91
2022-12-17T15:28:15.579Z,101022.13
2022-12-17T15:30:43.523Z,101022.09
2022-12-17T15:33:11.797Z,101030.97
2022-12-17T15:35:39.930Z,101036.00
2022-12-17T15:38:08.063Z,101034.59
2022-12-17T15:40:38.646Z,101034.06
2022-12-17T15:43:11.088Z,101027.19
2022-12-17T15:45:39.184Z,101037.16
2022-12-17T15:48:07.034Z,101035.72
2022-12-17T15:50:34.946Z,101036.66
2022-12-17T15:53:02.507Z,101047.19
2022-12-17T15:55:30.669Z,101039.19
2022-12-17T15:57:59.851Z,101039.81
2022-12-17T16:00:27.440Z,101041.47
2022-12-17T16:02:55.133Z,101044.75
2022-12-17T16:05:23.634Z,101049.78
2022-12-17T16:07:52.084Z,101051.25
2022-12-17T16:10:20.085Z,101042.06
2022-12-17T16:12:47.793Z,101046.22
2022-12-17T16:15:16.718Z,101037.03
2022-12-17T16:17:44.312Z,101032.44
2022-12-17T16:20:12.742Z,101025.75
2022-12-17T16:22:40.405Z,101035.09
2022-12-17T16:25:08.693Z,101034.06
2022-12-17T16:27:36.449Z,101033.75
2022-12-17T16:30:04.306Z,101034.78
2022-12-17T16:32:36.548Z,101031.22
2022-12-17T16:35:05.698Z,101031.66
2022-12-17T16:37:33.353Z,101027.34
2022-12-17T16:40:01.036Z,101024.25
2022-12-17T16:42:29.102Z,101030.59
2022-12-17T16:44:59.140Z,101042.56
2022-12-17T16:47:26.713Z,101044.00
2022-12-17T16:49:55.671Z,101047.25
2022-12-17T16:52:23.415Z,101051.09
2022-12-17T16:54:50.986Z,101044.88
2022-12-17T16:57:18.552Z,101045.88
2022-12-17T16:59:46.054Z,101050.41
2022-12-17T17:02:15.760Z,101065.28
2022-12-17T17:04:43.540Z,101056.81
2022-12-17T17:07:14.727Z,101062.91
2022-12-17T17:09:42.334Z,101057.53
2022-12-17T17:12:11.787Z,101056.50
2022-12-17T17:14:40.246Z,101062.09
2022-12-17T17:17:08.040Z,101066.50
2022-12-17T17:19:35.670Z,101067.06
2022-12-17T17:22:03.259Z,101072.69
2022-12-17T17:24:32.243Z,101070.56
2022-12-17T17:27:00.156Z,101065.25
2022-12-17T17:29:27.724Z,101062.81
2022-12-17T17:32:11.854Z,101074.34
2022-12-17T17:34:41.317Z,101069.88
2022-12-17T17:37:08.990Z,101076.28
2022-12-17T17:39:37.892Z,101077.81
2022-12-17T17:42:05.735Z,101085.13
2022-12-17T17:44:33.328Z,101080.97
2022-12-17T17:47:01.360Z,101085.97
2022-12-17T17:49:29.022Z,101078.38
2022-12-17T17:52:12.446Z,101078.63
2022-12-17T17:54:41.495Z,101089.81
2022-12-17T17:57:10.075Z,101084.31
2022-12-17T17:59:39.241Z,101082.19
2022-12-17T18:02:07.074Z,101083.59
2022-12-17T18:04:34.754Z,101082.66
2022-12-17T18:07:24.887Z,101090.59
2022-12-17T18:09:51.179Z,101093.16
2022-12-17T18:12:36.304Z,101095.44
2022-12-17T18:15:19.363Z,101093.00
2022-12-17T18:17:50.943Z,101094.06
2022-12-17T18:20:18.769Z,101093.00
2022-12-17T18:22:47.150Z,101101.28
2022-12-17T18:25:17.610Z,101097.03
2022-12-17T18:27:45.477Z,101105.38
2022-12-17T18:30:13.966Z,101107.56
2022-12-17T18:32:42.129Z,101116.59
2022-12-17T18:35:10.339Z,101116.53
2022-12-17T18:37:38.009Z,101118.88
2022-12-17T18:40:07.329Z,101125.69
2022-12-17T18:42:53.942Z,101117.75
2022-12-17T18:45:21.806Z,101125.72
2022-12-17T18:47:49.540Z,101127.69
2022-12-17T18:50:17.338Z,101124.88
2022-12-17T18:52:45.022Z,101131.63
2022-12-17T18:55:12.676Z,101129.56
2022-12-17T18:57:41.631Z,101129.88
2022-12-17T19:00:10.766Z,101131.34
2022-12-17T19:02:38.512Z,101134.41
2022-12-17T19:05:06.611Z,101134.25
2022-12-17T19:07:34.223Z,101136.81
2022-12-17T19:10:01.773Z,101138.59
2022-12-17T19:12:29.370Z,101141.84
2022-12-17T19:14:58.291Z,101133.91
2022-12-17T19:17:26.343Z,101138.22
2022-12-17T19:19:53.904Z,101140.38
2022-12-17T19:22:21.537Z,101145.47
2022-12-17T19:24:49.083Z,101145.50
2022-12-17T19:27:16.836Z,101142.69
2022-12-17T19:29:49.116Z,101139.81
2022-12-17T19:32:18.745Z,101151.97
2022-12-17T19:34:46.346Z,101159.50
2022-12-17T19:37:13.986Z,101157.53
2022-12-17T19:39:41.577Z,101148.41
2022-12-17T19:42:24.163Z,101143.41
2022-12-17T19:44:52.013Z,101138.13
2022-12-17T19:47:21.037Z,101145.63
2022-12-17T19:49:48.599Z,101138.13
2022-12-17T19:52:16.262Z,101140.22
2022-12-17T19:54:43.919Z,101141.66
2022-12-17T19:57:11.557Z,101138.28
2022-12-17T19:59:39.088Z,101142.78
2022-12-17T20:02:06.752Z,101147.84
2022-12-17T20:04:35.913Z,101153.63
2022-12-17T20:07:03.471Z,101150.81
2022-12-17T20:09:31.029Z,101138.00
2022-12-17T20:11:58.591Z,101135.91
2022-12-17T20:14:29.180Z,101146.97
2022-12-17T20:16:58.623Z,101134.88
2022-12-17T20:19:30.873Z,101139.47
2022-12-17T20:22:01.319Z,101124.88
2022-12-17T20:24:31.920Z,101135.44
2022-12-17T20:27:01.179Z,101135.44
2022-12-17T20:29:29.078Z,101128.09
2022-12-17T20:31:56.959Z,101140.13
2022-12-17T20:34:25.323Z,101140.88
2022-12-17T20:36:53.937Z,101142.84
2022-12-17T20:39:26.976Z,101142.16
2022-12-17T20:41:55.103Z,101143.06
2022-12-17T20:44:22.727Z,101143.94
2022-12-17T20:46:50.280Z,101138.56
2022-12-17T20:49:17.841Z,101133.22
2022-12-17T20:51:45.430Z,101133.22
2022-12-17T20:54:13.006Z,101128.63
2022-12-17T20:56:41.977Z,101131.13
2022-12-17T20:59:14.129Z,101135.06
2022-12-17T21:01:42.062Z,101142.22
2022-12-17T21:04:10.502Z,101136.47
2022-12-17T21:06:39.861Z,101141.13
2022-12-17T21:09:07.991Z,101132.88
2022-12-17T21:11:37.096Z,101128.94
2022-12-17T21:14:10.937Z,101123.09
2022-12-17T21:16:40.008Z,101129.69
2022-12-17T21:19:10.289Z,101127.19
2022-12-17T21:21:39.566Z,101133.66
2022-12-17T21:24:08.838Z,101137.59
2022-12-17T21:26:38.637Z,101141.84
2022-12-17T21:29:09.393Z,101151.13
2022-12-17T21:31:40.246Z,101160.97
2022-12-17T21:34:10.891Z,101160.41
2022-12-17T21:36:38.916Z,101158.63
2022-12-17T21:39:09.303Z,101155.03
2022-12-17T21:41:39.307Z,101159.34
2022-12-17T21:44:14.642Z,101165.06
2022-12-17T21:46:43.453Z,101163.63
2022-12-17T21:49:15.600Z,101165.16
2022-12-17T21:51:43.352Z,101161.78
2022-12-17T21:54:15.677Z,101161.78
2022-12-17T21:56:46.686Z,101168.97
2022-12-17T21:59:15.638Z,101171.47
2022-12-17T22:01:43.375Z,101164.69
2022-12-17T22:04:11.073Z,101170.38
2022-12-17T22:06:43.298Z,101168.59
2022-12-17T22:09:24.067Z,101175.78
2022-12-17T22:12:16.868Z,101178.97
2022-12-17T22:14:45.950Z,101185.06
2022-12-17T22:17:13.528Z,101181.88
2022-12-17T22:19:41.334Z,101175.06
2022-12-17T22:22:08.985Z,101173.28
2022-12-17T22:24:36.896Z,101170.06
2022-12-17T22:27:06.862Z,101169.72
2022-12-17T22:29:55.306Z,101168.47
2022-12-17T22:32:50.449Z,101163.44
2022-12-17T22:36:32.601Z,101171.75
2022-12-17T22:42:36.446Z,101164.28
2022-12-17T22:44:02.282Z,101159.88
2022-12-17T22:44:38.631Z,101174.72
2022-12-17T22:46:30.655Z,101176.34
2022-12-17T22:49:00.075Z,101169.41
2022-12-17T22:51:33.037Z,101165.31
2022-12-17T22:54:10.215Z,101176.19
2022-12-17T22:57:15.170Z,101179.78
2022-12-17T22:59:27.853Z,101187.66
2022-12-17T23:01:55.501Z,101175.53
2022-12-17T23:04:24.570Z,101175.16
2022-12-17T23:06:52.254Z,101189.81
2022-12-17T23:09:20.476Z,101188.56
2022-12-17T23:11:49.048Z,101182.69
2022-12-17T23:14:17.346Z,101189.81
2022-12-17T23:16:45.233Z,101189.81
2022-12-17T23:19:13.557Z,101191.97
2022-12-17T23:21:42.450Z,101191.59
2022-12-17T23:24:10.523Z,101183.66
2022-12-17T23:26:39.208Z,101178.78
2022-12-17T23:29:08.681Z,101170.34
2022-12-17T23:31:38.672Z,101162.59
2022-12-17T23:34:07.821Z,101168.41
2022-12-17T23:36:36.347Z,101166.69
2022-12-17T23:39:05.842Z,101168.59
2022-12-17T23:41:33.523Z,101162.38
2022-12-17T23:44:01.257Z,101162.94
2022-12-17T23:46:31.401Z,101166.53
2022-12-17T23:48:59.420Z,101176.91
2022-12-17T23:51:28.125Z,101172.63
2022-12-17T23:53:56.133Z,101174.78
2022-12-17T23:56:27.105Z,101179.78
2022-12-17T23:58:56.533Z,101164.78
